meteoblue

Στατιστικά Καιρού & Άλλα..









Δείκτης Πυρκαγιάς (FWI)

Καστελόκαμπος Ρίον more information Kastelokampos Rion


Κάμερα Ρομανού more information Romanos Cam


Ραντάρ Κεραυνών more information blitzortung!


Ραντάρ Βροχής more information rain snow radar


Επισκεφθείτε άλλες ιστοσελίδες καιρού μας:

Meteopatras.Eu in
Euweather NetworkMeteopatras.Eu in Euweather Network

Weather CloudWeather Cloud

PWS WeatherPWS Weather

Awekas NetWeather data from station Patra-Ketx

WunderGroundWeather data from station Patra-Ketx




Ιδιοκτησία και Επίβλεψη : Μουλάς Αντρέας

 Πάτρα, Ελλάδα - Γ.Πλάτος : 38°14'21" Β - Γ.Μήκος : 21°45'5" Α - Υψόμετρο : 56μ

Κοντινές Αναφορές METAR

Warning: A non-numeric value encountered in /storage/content/70/1007070/meteopatras.eu/public_html/weather/metar/metarDisplay.php on line 166 Warning: A non-numeric value encountered in /storage/content/70/1007070/meteopatras.eu/public_html/weather/metar/metarDisplay.php on line 166 Warning: A non-numeric value encountered in /storage/content/70/1007070/meteopatras.eu/public_html/weather/metar/metarDisplay.php on line 166 Warning: A non-numeric value encountered in /storage/content/70/1007070/meteopatras.eu/public_html/weather/metar/metarDisplay.php on line 166
   
LGRX - Araxos
Ενημερώθηκε: 17-09-2021 21:50
ΜΗ τρέχουσες
Αίθριος  
Αίθριος  
   Άνεμος: Άπνοια
Άνεμος: Άπνοια
Θερμοκρασία: 24°C
Σημείο Δρόσου: 22°C
Υγρασία: 89%
Βαρόμετρο: 1016 hPa
Ορατότητα: More than 10 km
Λεπτομέρειες Σύννεφου: Αίθριος
LGRX 171850Z 00000KT CAVOK 24/22 Q1016
LGAD - Andravida
Ενημερώθηκε: 17-09-2021 22:20
ΜΗ τρέχουσες
Αίθριος  
Αίθριος  
   Άνεμος: Άπνοια
Άνεμος: Άπνοια
Θερμοκρασία: 23°C
Σημείο Δρόσου: 21°C
Υγρασία: 89%
Βαρόμετρο: 1016 hPa
Ορατότητα: More than 10 km
Λεπτομέρειες Σύννεφου: Αίθριος
LGAD 171920Z 00000KT CAVOK 23/21 Q1016
LGZA - Zakinthos
Ενημερώθηκε: 17-09-2021 21:50
ΜΗ τρέχουσες
Κυρίως Αίθριος  
Κυρίως Αίθριος  
   Άνεμος: ΝΝΔ 11.1 km/h
Άνεμος: ΝΝΔ 11.1 km/h
Θερμοκρασία: 25°C
Σημείο Δρόσου: 22°C
Υγρασία: 83%
Βαρόμετρο: 1015 hPa
Σύννεφα: Κυρίως Αίθριος
Ορατότητα: More than 10 km
Λεπτομέρειες Σύννεφου: Κυρίως Αίθριος 1200 ft
LGZA 171850Z 21006KT 9999 FEW012 25/22 Q1015
LGKF - Kefallinia
Ενημερώθηκε: 17-09-2021 21:50
ΜΗ τρέχουσες
Μερικώς Νεφελώδης  
Μερικώς Νεφελώδης  
   Άνεμος: Άπνοια
Άνεμος: Άπνοια
Θερμοκρασία: 24°C
Σημείο Δρόσου: 22°C
Υγρασία: 89%
Βαρόμετρο: 1015 hPa
Σύννεφα: Μερικώς Νεφελώδης
Ορατότητα: 8 km
Λεπτομέρειες Σύννεφου: Μερικώς Νεφελώδης 1200 ft
LGKF 171850Z 00000KT 8000 SCT012 24/22 Q1015
LGPZ - Preveza
Ενημερώθηκε: 17-09-2021 21:50
ΜΗ τρέχουσες
Κυρίως Αίθριος  
Κυρίως Αίθριος  
   Άνεμος: ΝΔ 7.4 km/h
Άνεμος: ΝΔ 7.4 km/h
Θερμοκρασία: 25°C
Σημείο Δρόσου: 23°C
Υγρασία: 89%
Βαρόμετρο: 1015 hPa
Σύννεφα: Κυρίως Αίθριος
Ορατότητα: More than 10 km
Λεπτομέρειες Σύννεφου: Κυρίως Αίθριος 800 ft
LGPZ 171850Z 23004KT 9999 FEW008 25/23 Q1015
LGKL - Kalamata
Ενημερώθηκε: 17-09-2021 22:20
ΜΗ τρέχουσες
  
  
   Άνεμος: ΒΔ 11.1 km/h
Άνεμος: ΒΔ 11.1 km/h
Θερμοκρασία: 25°C
Σημείο Δρόσου: 19°C
Υγρασία: 69%
Βαρόμετρο: 1016 hPa
LGKL 171920Z AUTO 32006KT 310V010 //// // ////// 25/19 Q1016 RE//
LGKR - Kerkyra
Ενημερώθηκε: 17-09-2021 22:20
ΜΗ τρέχουσες
Μερικώς Νεφελώδης  
Μερικώς Νεφελώδης  
   Άνεμος: ΝΑ 13 km/h
Άνεμος: ΝΑ 13 km/h
Θερμοκρασία: 25°C
Σημείο Δρόσου: 20°C
Υγρασία: 74%
Βαρόμετρο: 1014 hPa
Σύννεφα: Μερικώς Νεφελώδης
Ορατότητα: More than 10 km
Λεπτομέρειες Σύννεφου: Κυρίως Αίθριος 800 ft,
Μερικώς Νεφελώδης 2000 ft
LGKR 171920Z 13007KT 9999 FEW008 SCT020 25/20 Q1014 NOSIG
LGIO - Iwannina
Ενημερώθηκε: 17-09-2021 22:20
ΜΗ τρέχουσες
  
  
   Άνεμος: ποικίλλει 5.6 km/h
Άνεμος: ποικίλλει 5.6 km/h
Θερμοκρασία: 23°C
Σημείο Δρόσου: 12°C
Υγρασία: 50%
Βαρόμετρο: 1017 hPa
LGIO 171920Z AUTO VRB03KT //// // ////// 23/12 Q1017 RE//
LGPZ - Leykada
Ενημερώθηκε: 17-09-2021 21:50
ΜΗ τρέχουσες
Κυρίως Αίθριος  
Κυρίως Αίθριος  
   Άνεμος: ΝΔ 7.4 km/h
Άνεμος: ΝΔ 7.4 km/h
Θερμοκρασία: 25°C
Σημείο Δρόσου: 23°C
Υγρασία: 89%
Βαρόμετρο: 1015 hPa
Σύννεφα: Κυρίως Αίθριος
Ορατότητα: More than 10 km
Λεπτομέρειες Σύννεφου: Κυρίως Αίθριος 800 ft
LGPZ 171850Z 23004KT 9999 FEW008 25/23 Q1015
LGEL - Elefsina
Ενημερώθηκε: 17-09-2021 22:20
ΜΗ τρέχουσες
  
  
   Άνεμος: ποικίλλει 3.7 km/h
Άνεμος: ποικίλλει 3.7 km/h
Θερμοκρασία: 25°C
Σημείο Δρόσου: 17°C
Υγρασία: 61%
Βαρόμετρο: 1013 hPa
LGEL 171920Z AUTO VRB02KT //// // ////// 25/17 Q1013 RE//
LGKC - Kythira
Ενημερώθηκε: 17-09-2021 19:50
ΜΗ τρέχουσες
Αίθριος  
Αίθριος  
   Άνεμος: Δύση 20.4 km/h
Άνεμος: Δύση 20.4 km/h
Θερμοκρασία: 24°C
Σημείο Δρόσου: 21°C
Υγρασία: 83%
Βαρόμετρο: 1015 hPa
Ορατότητα: More than 10 km
Λεπτομέρειες Σύννεφου: Αίθριος
LGKC 171650Z 26011KT CAVOK 24/21 Q1015
LGIR - Hraklio
Ενημερώθηκε: 17-09-2021 22:20
ΜΗ τρέχουσες
Αίθριος  
Αίθριος  
   Άνεμος: Νότος 11.1 km/h
Άνεμος: Νότος 11.1 km/h
Θερμοκρασία: 23°C
Σημείο Δρόσου: 18°C
Υγρασία: 74%
Βαρόμετρο: 1015 hPa
Ορατότητα: More than 10 km
Λεπτομέρειες Σύννεφου: Αίθριος
LGIR 171920Z 17006KT CAVOK 23/18 Q1015 NOSIG

Script developed by  Saratoga-weather.org Προσαρμοσμένος για το πρότυπο του  Weerstation Leuven

Μπορείτε να βρείτε πληροφορίες καιρού μας και σε:

European Weather Network

WeatherCloud

Weather Underground

Δύκτιο Σταθμών Ελλάδας

AWEKAS

HAMweather, WeatherForYou, PWS Weather

MeteoPatras.Eu